Time;durP1;ratioP1;P1;durP2;ratioP2;P2;SDS_P1;SDS_P2;PMS_P1;PMS_P2;Temp;Humidity;BMP_temperature;BMP_pressure;BME280_temperature;BME280_humidity;BME280_pressure;Samples;Min_cycle;Max_cycle;Signal;HPM_P1;HPM_P2
2023/06/27 00:00:27;;;;;;;11.10;2.35;;;;;;;-146.27;69.98;81402.00;5030523;28;20067;-73
2023/06/27 00:02:53;;;;;;;13.90;2.92;;;;;;;-146.27;70.21;81414.06;5046609;28;20017;-73
2023/06/27 00:05:18;;;;;;;11.60;3.22;;;;;;;-146.27;70.48;81402.00;5048361;28;20086;-73
2023/06/27 00:07:44;;;;;;;16.95;2.65;;;;;;;-146.27;70.90;81385.94;5054939;28;20028;-73
2023/06/27 00:10:10;;;;;;;15.32;2.38;;;;;;;-146.27;71.15;81397.97;5046942;28;20020;-71
2023/06/27 00:12:37;;;;;;;12.30;2.53;;;;;;;-146.27;71.30;81391.97;5049025;28;20083;-73
2023/06/27 00:15:05;;;;;;;14.40;2.53;;;;;;;-146.27;71.27;81400.00;5047258;28;20024;-72
2023/06/27 00:17:33;;;;;;;12.10;2.60;;;;;;;-146.27;71.92;81430.13;5049583;28;20035;-71
2023/06/27 00:19:59;;;;;;;14.63;3.28;;;;;;;-146.27;72.29;81375.91;5048072;28;20024;-71
2023/06/27 00:22:26;;;;;;;11.75;3.20;;;;;;;-146.27;72.14;81408.03;5048442;28;20025;-73
2023/06/27 00:24:52;;;;;;;16.98;3.00;;;;;;;-146.27;72.12;81436.16;5049160;28;20618;-73
2023/06/27 00:27:17;;;;;;;8.80;2.45;;;;;;;-146.27;72.49;81464.25;5049941;28;20052;-73
2023/06/27 00:29:43;;;;;;;15.65;3.00;;;;;;;-146.27;72.51;81472.28;5046442;28;20106;-73
2023/06/27 00:32:09;;;;;;;14.30;2.78;;;;;;;-146.27;72.93;81446.19;5050552;28;20021;-73
2023/06/27 00:34:37;;;;;;;16.60;3.10;;;;;;;-146.27;73.20;81488.38;5048833;28;20381;-72
2023/06/27 00:37:03;;;;;;;14.80;2.33;;;;;;;-146.27;74.08;81464.25;5047580;28;20029;-73
2023/06/27 00:39:28;;;;;;;17.00;3.55;;;;;;;-146.27;74.10;81460.25;5049017;28;20039;-73
2023/06/27 00:41:54;;;;;;;14.43;2.95;;;;;;;-146.27;74.42;81496.41;5049484;28;20039;-73
2023/06/27 00:44:20;;;;;;;18.00;2.72;;;;;;;-146.27;74.55;81472.28;5049141;28;20033;-72
2023/06/27 00:46:48;;;;;;;20.35;3.72;;;;;;;-146.27;74.62;81458.22;5049349;28;20476;-72
2023/06/27 00:49:16;;;;;;;17.70;3.42;;;;;;;-146.27;74.57;81460.25;5049697;28;20087;-72
2023/06/27 00:51:41;;;;;;;18.80;3.38;;;;;;;-146.27;75.15;81496.41;5046864;28;20037;-72
2023/06/27 00:54:07;;;;;;;13.43;2.78;;;;;;;-146.27;75.23;81496.41;5049603;28;20025;-72
2023/06/27 00:56:34;;;;;;;14.13;2.75;;;;;;;-146.27;75.26;81516.47;5049303;28;20103;-73
2023/06/27 00:59:01;;;;;;;15.02;2.80;;;;;;;-146.27;75.62;81480.31;5049594;28;20057;-73
2023/06/27 01:01:29;;;;;;;11.80;2.90;;;;;;;-146.27;75.96;81488.38;5048266;28;20079;-73
2023/06/27 01:03:55;;;;;;;13.52;2.55;;;;;;;-146.27;76.22;81504.44;5047871;28;20108;-73
2023/06/27 01:06:38;;;;;;;15.05;3.47;;;;;;;-146.27;75.84;81544.59;5046871;28;20035;-72
2023/06/27 01:09:10;;;;;;;;;;;;;;;-146.27;75.84;81520.50;5048401;28;20028;-73
2023/06/27 01:11:44;;;;;;;9.75;2.33;;;;;;;-146.27;76.43;81552.63;5048444;28;20031;-72
2023/06/27 01:14:10;;;;;;;12.63;2.63;;;;;;;-146.27;77.04;81560.66;5049861;28;20722;-72
2023/06/27 01:16:38;;;;;;;9.60;2.45;;;;;;;-146.27;77.04;81524.50;5048853;28;20104;-72
2023/06/27 01:19:08;;;;;;;16.27;2.97;;;;;;;-146.27;76.91;81526.53;5030892;28;20068;-73
2023/06/27 01:21:34;;;;;;;15.00;2.67;;;;;;;-146.27;76.63;81534.56;5046930;28;20028;-73
2023/06/27 01:24:03;;;;;;;12.85;2.45;;;;;;;-146.27;76.83;81600.84;5048917;28;20396;-72
2023/06/27 01:26:29;;;;;;;17.30;3.05;;;;;;;-146.27;76.67;81528.53;5047372;28;20051;-72
2023/06/27 01:28:55;;;;;;;7.05;2.70;;;;;;;-146.27;76.72;81528.53;5045488;28;20052;-72
2023/06/27 01:31:37;;;;;;;16.02;3.72;;;;;;;-146.27;77.40;81532.53;5049948;28;20051;-73
2023/06/27 01:34:33;;;;;;;15.02;2.90;;;;;;;-146.27;77.84;81584.75;5049874;28;20075;-72
2023/06/27 01:37:20;;;;;;;14.25;3.20;;;;;;;-146.27;78.11;81588.78;5049904;28;20029;-72
2023/06/27 01:39:56;;;;;;;13.82;2.85;;;;;;;-146.27;77.86;81580.75;5048730;28;20025;-72
2023/06/27 01:42:27;;;;;;;10.60;2.53;;;;;;;-146.27;78.31;81596.81;5047255;28;20473;-72
2023/06/27 01:44:54;;;;;;;8.43;2.38;;;;;;;-146.27;77.75;81618.91;5049202;28;20090;-72
2023/06/27 01:47:21;;;;;;;14.75;3.65;;;;;;;-146.27;78.20;81590.78;5048149;28;20064;-72
2023/06/27 01:49:47;;;;;;;14.05;2.50;;;;;;;-146.27;78.37;81592.78;5030881;28;20029;-72
2023/06/27 01:52:13;;;;;;;16.27;2.85;;;;;;;-146.27;78.32;81604.84;5047325;28;20036;-72
2023/06/27 01:54:43;;;;;;;20.02;3.13;;;;;;;-146.27;78.39;81624.94;5047794;28;20074;-72
2023/06/27 01:57:09;;;;;;;12.90;2.75;;;;;;;-146.27;78.57;81608.88;5047049;28;20025;-72
2023/06/27 01:59:34;;;;;;;11.15;2.72;;;;;;;-146.27;78.67;81580.75;5048634;28;20068;-72
2023/06/27 02:02:00;;;;;;;15.35;2.65;;;;;;;-146.27;78.78;81544.59;5039877;28;20029;-72
2023/06/27 02:04:25;;;;;;;13.50;3.13;;;;;;;-146.27;78.94;81604.84;5049372;28;20380;-72
2023/06/27 02:06:51;;;;;;;10.93;2.85;;;;;;;-146.27;80.10;81592.78;5048747;28;20060;-72
2023/06/27 02:09:16;;;;;;;14.32;2.65;;;;;;;-146.27;78.88;81602.84;5047815;28;20079;-72
2023/06/27 02:11:41;;;;;;;14.35;3.13;;;;;;;-146.27;79.15;81600.84;5047539;28;20044;-73
2023/06/27 02:14:07;;;;;;;12.43;2.53;;;;;;;-146.27;79.39;81574.72;5049999;28;20037;-72
2023/06/27 02:16:32;;;;;;;17.95;3.13;;;;;;;-146.27;79.53;81616.91;5052072;28;20040;-72
2023/06/27 02:18:58;;;;;;;10.60;2.72;;;;;;;-146.27;79.47;81604.84;5052997;28;20032;-72
2023/06/27 02:21:23;;;;;;;13.13;2.88;;;;;;;-146.27;79.87;81641.00;5053016;28;20091;-72
2023/06/27 02:23:48;;;;;;;17.08;3.40;;;;;;;-146.27;80.02;81643.00;5063895;28;20040;-72
2023/06/27 02:26:14;;;;;;;17.30;3.55;;;;;;;-146.27;79.78;81596.81;5053035;28;20025;-72
2023/06/27 02:28:39;;;;;;;11.75;2.50;;;;;;;-146.27;80.03;81641.00;5052123;28;20532;-72
2023/06/27 02:31:04;;;;;;;18.88;3.00;;;;;;;-146.27;79.57;81655.06;5053092;28;20477;-73
2023/06/27 02:33:30;;;;;;;16.80;2.63;;;;;;;-146.27;79.42;81632.97;5052172;28;20033;-72
2023/06/27 02:35:55;;;;;;;11.95;2.88;;;;;;;-146.27;79.90;81709.28;5051058;28;20031;-72
2023/06/27 02:38:21;;;;;;;14.80;2.60;;;;;;;-146.27;80.56;81697.22;5052854;28;20082;-72
2023/06/27 02:40:47;;;;;;;15.25;2.67;;;;;;;-146.27;80.65;81721.34;5052093;28;20021;-72
2023/06/27 02:43:12;;;;;;;10.85;3.50;;;;;;;-146.27;80.96;81751.47;5050413;28;20025;-72
2023/06/27 02:45:38;;;;;;;12.45;3.05;;;;;;;-146.27;81.54;81757.50;5051368;28;20063;-72
2023/06/27 02:48:04;;;;;;;14.57;3.63;;;;;;;-146.27;81.10;81809.72;5051580;28;20037;-72
2023/06/27 02:50:29;;;;;;;11.95;3.20;;;;;;;-146.27;81.35;81787.63;5051306;28;20090;-73
2023/06/27 02:52:55;;;;;;;9.27;2.67;;;;;;;-146.27;81.85;81769.53;5032299;28;20120;-72
2023/06/27 02:55:20;;;;;;;11.73;2.75;;;;;;;-146.27;81.84;81821.75;5051136;28;20033;-73
2023/06/27 02:57:46;;;;;;;16.90;2.95;;;;;;;-146.27;81.84;81821.75;5050468;28;20508;-72
2023/06/27 03:00:12;;;;;;;11.02;3.03;;;;;;;-146.27;82.52;81829.78;5051493;28;20484;-71
2023/06/27 03:02:37;;;;;;;13.00;2.72;;;;;;;-146.27;82.79;81882.00;5051043;28;20067;-72
2023/06/27 03:05:02;;;;;;;10.75;3.28;;;;;;;-146.27;82.96;81865.94;5051518;28;20051;-71
2023/06/27 03:07:28;;;;;;;20.48;3.33;;;;;;;-146.27;83.31;81882.00;5051546;28;20032;-73
2023/06/27 03:09:53;;;;;;;16.05;3.40;;;;;;;-146.27;83.53;81900.09;5032977;28;20033;-73
2023/06/27 03:12:19;;;;;;;12.70;3.20;;;;;;;-146.27;82.77;81845.88;5050681;28;20037;-73
2023/06/27 03:14:44;;;;;;;12.93;2.70;;;;;;;-146.27;82.55;81819.75;5051317;28;20479;-73
2023/06/27 03:17:09;;;;;;;14.27;3.92;;;;;;;-146.27;83.27;81815.72;5050388;28;20025;-72
2023/06/27 03:19:35;;;;;;;9.35;2.85;;;;;;;-146.27;83.09;81819.75;5050916;28;20083;-73
2023/06/27 03:22:00;;;;;;;13.98;3.00;;;;;;;-146.27;84.00;81829.78;5051239;28;20029;-72
2023/06/27 03:24:26;;;;;;;14.55;2.80;;;;;;;-146.27;83.15;81825.78;5051685;28;20552;-73
2023/06/27 03:26:51;;;;;;;13.27;3.58;;;;;;;-146.27;83.12;81841.84;5047532;28;20120;-73
2023/06/27 03:29:16;;;;;;;15.82;3.20;;;;;;;-146.27;83.40;81845.88;5050578;28;20020;-73
2023/06/27 03:31:42;;;;;;;11.90;3.03;;;;;;;-146.27;83.53;81841.84;5050078;28;20029;-73
2023/06/27 03:34:07;;;;;;;9.75;2.90;;;;;;;-146.27;83.87;81878.00;5033394;28;20499;-73
2023/06/27 03:36:33;;;;;;;16.23;2.97;;;;;;;-146.27;84.23;81849.88;5049944;28;20037;-72
2023/06/27 03:38:59;;;;;;;13.73;4.03;;;;;;;-146.27;84.64;81857.91;5050855;28;20531;-72
2023/06/27 03:41:25;;;;;;;11.85;2.55;;;;;;;-146.27;84.26;81857.91;5050031;28;20029;-73
2023/06/27 03:43:50;;;;;;;10.30;2.60;;;;;;;-146.27;84.10;81908.13;5051208;28;20032;-72
2023/06/27 03:46:16;;;;;;;16.55;3.05;;;;;;;-146.27;84.09;81900.09;5051295;28;20429;-73
2023/06/27 03:48:41;;;;;;;20.08;4.00;;;;;;;-146.27;85.39;81902.09;5051223;28;20524;-71
2023/06/27 03:51:07;;;;;;;10.35;2.92;;;;;;;-146.27;84.34;81886.03;5043288;28;20037;-72
2023/06/27 03:53:32;;;;;;;13.88;3.10;;;;;;;-146.27;84.42;82002.53;5031258;28;20021;-71
2023/06/27 03:56:00;;;;;;;16.67;4.07;;;;;;;-146.27;84.42;81908.13;5046514;28;20451;-72
2023/06/27 03:58:25;;;;;;;16.35;3.47;;;;;;;-146.27;84.78;81910.13;5031955;28;20103;-71
2023/06/27 04:00:55;;;;;;;13.75;3.00;;;;;;;-146.27;85.10;81914.16;5050220;28;20040;-71
2023/06/27 04:03:21;;;;;;;12.82;3.50;;;;;;;-146.27;85.78;81918.16;5051060;28;20040;-71
2023/06/27 04:05:47;;;;;;;12.38;3.05;;;;;;;-146.27;84.81;81878.00;5051108;28;20029;-72
2023/06/27 04:08:12;;;;;;;11.80;3.08;;;;;;;-146.27;84.91;81906.13;5051125;28;20048;-72
2023/06/27 04:10:42;;;;;;;16.08;2.90;;;;;;;-146.27;84.66;81867.97;5048611;28;20116;-71
2023/06/27 04:13:08;;;;;;;8.18;2.80;;;;;;;-146.27;84.88;81869.97;5049908;28;20049;-72
2023/06/27 04:15:39;;;;;;;12.48;2.97;;;;;;;-146.27;84.19;81857.91;5049801;28;20136;-72
2023/06/27 04:18:05;;;;;;;13.70;2.95;;;;;;;-146.27;84.92;81843.84;5050808;28;20033;-72
2023/06/27 04:20:30;;;;;;;11.02;2.80;;;;;;;-146.27;84.34;81857.91;5030281;28;20028;-72
2023/06/27 04:22:56;;;;;;;17.52;3.15;;;;;;;-146.27;84.41;81859.94;5050761;28;20419;-72
2023/06/27 04:25:21;;;;;;;13.32;3.30;;;;;;;-146.27;84.64;81871.97;5049940;28;20107;-72
2023/06/27 04:27:46;;;;;;;12.73;3.15;;;;;;;-146.27;84.21;81898.09;5048653;28;20028;-72
2023/06/27 04:30:12;;;;;;;14.38;3.30;;;;;;;-146.27;84.68;81906.13;5049314;28;20024;-72
2023/06/27 04:32:38;;;;;;;13.90;3.38;;;;;;;-146.27;84.75;81936.25;5049657;28;20052;-72
2023/06/27 04:35:04;;;;;;;13.07;3.28;;;;;;;-146.27;84.90;81910.13;5047495;28;20052;-71
2023/06/27 04:37:29;;;;;;;8.50;3.72;;;;;;;-146.27;85.21;81926.22;5042694;28;20541;-71
2023/06/27 04:39:55;;;;;;;10.70;3.08;;;;;;;-146.27;85.28;81966.38;5047432;28;20021;-72
2023/06/27 04:42:20;;;;;;;10.27;2.95;;;;;;;-146.27;85.89;81930.22;5047692;28;20032;-72
2023/06/27 04:44:45;;;;;;;13.93;3.78;;;;;;;-146.27;85.18;81936.25;5049724;28;20115;-72
2023/06/27 04:47:11;;;;;;;10.60;3.10;;;;;;;-146.27;84.57;81936.25;5048337;28;20048;-71
2023/06/27 04:49:36;;;;;;;12.18;3.67;;;;;;;-146.27;85.93;81974.41;5046067;28;20048;-72
2023/06/27 04:52:02;;;;;;;9.50;2.80;;;;;;;-146.27;85.32;81954.31;5046795;28;20029;-71
2023/06/27 04:54:27;;;;;;;14.73;3.40;;;;;;;-146.27;85.49;81918.16;5037516;28;20033;-71
2023/06/27 04:56:53;;;;;;;12.18;2.67;;;;;;;-146.27;85.71;81918.16;5036816;28;20070;-73
2023/06/27 04:59:19;;;;;;;12.80;3.05;;;;;;;-146.27;85.13;81918.16;5047727;28;20052;-71
2023/06/27 05:01:45;;;;;;;11.02;3.30;;;;;;;-146.27;84.73;81878.00;5030495;28;20488;-72
2023/06/27 05:04:10;;;;;;;11.10;2.97;;;;;;;-146.27;83.61;81878.00;5047643;28;20102;-73
2023/06/27 05:06:36;;;;;;;14.88;3.05;;;;;;;-146.27;83.58;81853.91;5044806;28;20025;-73
2023/06/27 05:09:03;;;;;;;8.55;2.10;;;;;;;-146.27;82.98;81837.81;5029462;28;20127;-73
2023/06/27 05:11:30;;;;;;;11.07;2.50;;;;;;;-146.27;81.99;81797.66;5046090;28;20032;-72
2023/06/27 05:13:55;;;;;;;11.77;3.13;;;;;;;-146.27;81.21;81785.59;5049113;28;20036;-72
2023/06/27 05:16:21;;;;;;;11.43;2.40;;;;;;;-146.27;81.04;81781.59;5048947;28;20500;-72
2023/06/27 05:18:47;;;;;;;6.75;2.50;;;;;;;-146.27;80.10;81771.53;5049667;28;20025;-72
2023/06/27 05:21:12;;;;;;;9.63;2.30;;;;;;;-146.27;78.82;81755.47;5029833;28;20021;-72
2023/06/27 05:23:38;;;;;;;6.68;1.95;;;;;;;-146.27;78.40;81753.47;5047313;28;20083;-75
2023/06/27 05:26:03;;;;;;;4.55;1.75;;;;;;;-146.27;77.38;81731.38;5047296;28;20032;-69
2023/06/27 05:28:29;;;;;;;8.82;1.70;;;;;;;-146.27;77.21;81745.44;5048697;28;20029;-73
2023/06/27 05:30:55;;;;;;;3.58;1.85;;;;;;;-146.27;76.65;81715.31;5048141;28;20142;-73
2023/06/27 05:33:21;;;;;;;9.43;1.88;;;;;;;-146.27;76.19;81725.34;5049469;28;20028;-73
2023/06/27 05:35:46;;;;;;;8.15;1.92;;;;;;;-146.27;76.29;81705.28;5046730;28;20108;-73
2023/06/27 05:38:12;;;;;;;3.63;1.30;;;;;;;-146.27;76.13;81687.19;5038884;28;20021;-73
2023/06/27 05:40:37;;;;;;;6.63;2.10;;;;;;;-146.27;75.94;81705.28;5048370;28;20017;-74
2023/06/27 05:43:03;;;;;;;6.60;1.70;;;;;;;-146.27;76.20;81681.16;5044926;28;20499;-73
2023/06/27 05:45:28;;;;;;;4.40;1.73;;;;;;;-146.27;76.17;81687.19;5043120;28;20025;-72
2023/06/27 05:47:54;;;;;;;6.20;1.52;;;;;;;-146.27;76.60;81695.22;5046927;28;20035;-73
2023/06/27 05:50:19;;;;;;;6.10;1.85;;;;;;;-146.27;75.97;81653.06;5048803;28;20349;-74
2023/06/27 05:52:44;;;;;;;7.15;2.10;;;;;;;-146.27;76.00;81628.94;5041455;28;20068;-74
2023/06/27 05:55:10;;;;;;;7.03;1.60;;;;;;;-146.27;76.26;81653.06;5051009;28;20032;-74
2023/06/27 05:57:35;;;;;;;4.45;1.42;;;;;;;-146.27;75.80;81580.75;5052214;28;20468;-74
2023/06/27 06:00:01;;;;;;;5.32;1.50;;;;;;;-146.27;75.89;81588.78;5051981;28;20037;-73
2023/06/27 06:02:26;;;;;;;2.60;1.48;;;;;;;-146.27;75.38;81568.69;5048837;28;20072;-72
2023/06/27 06:04:54;;;;;;;6.15;1.77;;;;;;;-146.27;74.70;81564.69;5051164;28;20112;-73
2023/06/27 06:07:20;;;;;;;4.22;1.42;;;;;;;-146.27;73.97;81552.63;5034327;28;20063;-72
2023/06/27 06:09:45;;;;;;;4.10;1.23;;;;;;;-146.27;73.11;81552.63;5048091;28;20060;-72
2023/06/27 06:12:10;;;;;;;3.38;1.35;;;;;;;-146.27;71.89;81536.56;5048614;28;20132;-72
2023/06/27 06:14:36;;;;;;;3.53;1.20;;;;;;;-146.27;70.75;81544.59;5029047;28;20025;-72
2023/06/27 06:17:01;;;;;;;7.47;1.52;;;;;;;-146.27;70.25;81528.53;5046902;28;20116;-72
2023/06/27 06:19:27;;;;;;;7.30;1.38;;;;;;;-146.27;68.65;81592.78;5046834;28;20033;-73
2023/06/27 06:21:52;;;;;;;7.93;1.80;;;;;;;-146.27;68.94;81538.56;5040232;28;20444;-72
2023/06/27 06:24:17;;;;;;;4.38;1.30;;;;;;;-146.27;68.71;81528.53;5048224;28;20108;-73
2023/06/27 06:26:43;;;;;;;3.08;1.27;;;;;;;-146.27;68.27;81476.31;5043321;28;20029;-74
2023/06/27 06:29:13;;;;;;;3.13;1.08;;;;;;;-146.27;66.87;81468.28;5034212;28;20017;-72
2023/06/27 06:31:42;;;;;;;7.20;1.13;;;;;;;-146.27;66.80;81452.22;5050704;28;20024;-72
2023/06/27 06:34:07;;;;;;;9.48;1.20;;;;;;;-146.27;65.40;81422.09;5052898;28;20025;-72
2023/06/27 06:36:33;;;;;;;9.13;1.20;;;;;;;-146.27;66.14;81444.19;5046669;28;20029;-71
2023/06/27 06:38:58;;;;;;;4.60;0.93;;;;;;;-146.27;65.65;81361.84;5049441;28;20032;-73
2023/06/27 06:41:24;;;;;;;3.85;1.52;;;;;;;-146.27;63.74;81333.72;5052452;28;20063;-73
2023/06/27 06:43:50;;;;;;;8.13;1.15;;;;;;;-146.27;62.44;81299.59;5052408;28;20021;-72
2023/06/27 06:46:15;;;;;;;2.05;0.85;;;;;;;-146.27;60.59;81265.44;5051736;28;20036;-73
2023/06/27 06:48:44;;;;;;;3.90;1.00;;;;;;;-146.27;58.25;81301.59;5046319;28;20036;-74
2023/06/27 06:51:09;;;;;;;4.18;1.13;;;;;;;-146.27;58.55;81221.25;5031502;28;20119;-70
2023/06/27 06:53:35;;;;;;;7.15;0.85;;;;;;;-146.27;58.54;81183.09;5050192;28;20104;-71
2023/06/27 06:56:00;;;;;;;3.95;1.35;;;;;;;-146.27;57.79;81175.06;5051470;28;20032;-72
2023/06/27 06:58:26;;;;;;;4.30;1.15;;;;;;;-146.27;53.97;81219.25;5050284;28;20075;-70
2023/06/27 07:00:51;;;;;;;4.95;0.90;;;;;;;-146.27;54.02;81215.22;5049591;28;20029;-71
2023/06/27 07:03:16;;;;;;;3.30;1.00;;;;;;;-146.27;53.71;81187.13;5051334;28;20404;-69
2023/06/27 07:05:42;;;;;;;4.88;1.00;;;;;;;-146.27;52.39;81183.09;5034153;28;20056;-71
2023/06/27 07:08:07;;;;;;;2.55;1.08;;;;;;;-146.27;51.62;81155.00;5052035;28;20393;-70
2023/06/27 07:10:33;;;;;;;2.85;0.93;;;;;;;-146.27;50.98;81177.06;5052515;28;20021;-72
2023/06/27 07:13:02;;;;;;;4.10;0.60;;;;;;;-146.27;49.52;81155.00;5051121;28;20029;-71
2023/06/27 07:15:28;;;;;;;7.95;1.10;;;;;;;-146.27;50.40;81191.13;5051893;28;20497;-70
2023/06/27 07:17:54;;;;;;;5.68;1.00;;;;;;;-146.27;50.69;81193.16;5051112;28;20024;-71
2023/06/27 07:20:21;;;;;;;2.30;1.00;;;;;;;-146.27;50.10;81243.34;5033967;28;20388;-70
2023/06/27 07:22:47;;;;;;;5.95;0.80;;;;;;;-146.27;51.14;81193.16;5050431;28;20025;-70
2023/06/27 07:25:13;;;;;;;3.78;1.00;;;;;;;-146.27;51.67;81163.03;5050961;28;20045;-71
2023/06/27 07:27:38;;;;;;;5.70;0.90;;;;;;;-146.27;50.77;81171.06;5051755;28;20053;-71
2023/06/27 07:30:04;;;;;;;3.92;0.98;;;;;;;-146.27;50.50;81130.88;5051843;28;20039;-71
2023/06/27 07:32:30;;;;;;;2.97;0.90;;;;;;;-146.27;51.80;81114.81;5048574;28;20033;-71
2023/06/27 07:34:55;;;;;;;5.20;0.93;;;;;;;-146.27;51.68;81114.81;5048823;28;20036;-72
2023/06/27 07:37:20;;;;;;;6.80;1.02;;;;;;;-146.27;51.82;81126.88;5051664;28;20062;-72
2023/06/27 07:39:46;;;;;;;2.17;1.00;;;;;;;-146.27;52.42;81054.56;5049853;28;20150;-73
2023/06/27 07:42:11;;;;;;;3.78;1.27;;;;;;;-146.27;51.39;81042.53;5049815;28;20024;-72
2023/06/27 07:44:37;;;;;;;2.72;0.90;;;;;;;-146.27;50.56;81038.50;5051371;28;20028;-70
2023/06/27 07:47:02;;;;;;;2.20;0.80;;;;;;;-146.27;49.38;81058.59;5046926;28;20477;-72
2023/06/27 07:49:30;;;;;;;2.42;0.90;;;;;;;-146.27;49.32;81026.47;5049622;28;20028;-71
2023/06/27 07:51:56;;;;;;;3.78;0.95;;;;;;;-146.27;49.58;81074.66;5051316;28;20107;-72
2023/06/27 07:54:24;;;;;;;5.03;1.20;;;;;;;-146.27;50.10;81076.66;5051136;28;20603;-70
2023/06/27 07:56:49;;;;;;;4.35;1.13;;;;;;;-146.27;49.43;81074.66;5049259;28;20407;-70
2023/06/27 07:59:14;;;;;;;8.05;1.27;;;;;;;-146.27;50.11;81134.91;5047680;28;20037;-69
2023/06/27 08:01:40;;;;;;;4.75;0.95;;;;;;;-146.27;49.78;81114.81;5044765;28;20044;-69
2023/06/27 08:04:06;;;;;;;4.18;1.00;;;;;;;-146.27;50.98;81110.81;5045544;28;20052;-68
2023/06/27 08:06:31;;;;;;;2.95;0.80;;;;;;;-146.27;52.33;81110.81;5050178;28;20388;-69
2023/06/27 08:08:57;;;;;;;5.68;1.25;;;;;;;-146.27;51.86;81082.69;5056799;28;20071;-69
2023/06/27 08:11:22;;;;;;;5.07;1.23;;;;;;;-146.27;51.35;81062.59;5048183;28;20033;-69
2023/06/27 08:13:47;;;;;;;6.82;1.10;;;;;;;-146.27;51.63;81086.72;5048552;28;20458;-68
2023/06/27 08:16:13;;;;;;;2.58;0.80;;;;;;;-146.27;51.17;81140.94;5045907;28;20030;-69
2023/06/27 08:18:38;;;;;;;4.35;1.42;;;;;;;-146.27;51.64;81150.97;5040357;28;20028;-71
2023/06/27 08:21:04;;;;;;;5.85;1.25;;;;;;;-146.27;51.58;81100.75;5047261;28;20427;-69
2023/06/27 08:23:30;;;;;;;2.00;0.80;;;;;;;-146.27;52.43;81157.00;5049612;28;20447;-70
2023/06/27 08:25:55;;;;;;;3.65;1.17;;;;;;;-146.27;53.26;81130.88;5050333;28;20400;-70
2023/06/27 08:28:20;;;;;;;3.35;0.80;;;;;;;-146.27;51.97;81140.94;5049446;28;20043;-70
2023/06/27 08:30:46;;;;;;;4.53;0.80;;;;;;;-146.27;50.52;81155.00;5048955;28;20032;-69
2023/06/27 08:33:12;;;;;;;3.63;0.88;;;;;;;-146.27;51.42;81215.22;5049635;28;20033;-70
2023/06/27 08:35:38;;;;;;;3.50;0.93;;;;;;;-146.27;51.10;81243.34;5050373;28;20131;-71
2023/06/27 08:38:04;;;;;;;2.58;0.90;;;;;;;-146.27;51.94;81211.22;5049873;28;20494;-69
2023/06/27 08:40:33;;;;;;;4.75;0.95;;;;;;;-146.27;53.76;81263.44;5050059;28;20025;-69
2023/06/27 08:42:58;;;;;;;5.20;1.33;;;;;;;-146.27;53.91;81171.06;5047410;28;20108;-70
2023/06/27 08:45:24;;;;;;;3.75;0.95;;;;;;;-146.27;53.05;81157.00;5028322;28;20143;-70
2023/06/27 08:47:49;;;;;;;2.97;0.90;;;;;;;-146.27;52.47;81161.00;5048876;28;20540;-69
2023/06/27 08:50:17;;;;;;;4.15;1.00;;;;;;;-146.27;52.42;81159.00;5050373;28;20025;-69
2023/06/27 08:52:55;;;;;;;5.90;0.75;;;;;;;-146.27;51.92;81150.97;5029891;28;20025;-69
2023/06/27 08:55:30;;;;;;;5.13;1.20;;;;;;;-146.27;53.03;81128.88;5046867;28;20298;-70
2023/06/27 08:57:58;;;;;;;4.13;0.80;;;;;;;-146.27;54.18;81150.97;5031100;28;20163;-70
2023/06/27 09:00:26;;;;;;;3.20;1.00;;;;;;;-146.27;54.13;81122.84;5041400;28;20036;-69
2023/06/27 09:02:52;;;;;;;6.15;1.42;;;;;;;-146.27;53.41;81106.78;5030060;28;20381;-70
2023/06/27 09:05:18;;;;;;;2.35;0.90;;;;;;;-146.27;53.71;81100.75;5030155;28;20033;-70
2023/06/27 09:07:44;;;;;;;5.60;1.05;;;;;;;-146.27;53.26;81126.88;5029954;28;20075;-69
2023/06/27 09:10:10;;;;;;;5.25;1.10;;;;;;;-146.27;53.23;81064.63;5038288;28;20032;-71
2023/06/27 09:12:37;;;;;;;5.65;0.88;;;;;;;-146.27;53.84;81060.59;5049478;28;20039;-69
2023/06/27 09:15:03;;;;;;;3.47;0.90;;;;;;;-146.27;53.61;81056.59;5049604;28;20029;-68
2023/06/27 09:17:29;;;;;;;5.00;0.98;;;;;;;-146.27;53.37;81094.75;5049572;28;20098;-70
2023/06/27 09:19:54;;;;;;;4.05;1.00;;;;;;;-146.27;52.95;81062.59;5048322;28;20028;-69
2023/06/27 09:22:23;;;;;;;2.90;0.77;;;;;;;-146.27;52.21;81064.63;5048196;28;20040;-69
2023/06/27 09:24:49;;;;;;;6.85;1.00;;;;;;;-146.27;52.83;80990.31;5035276;28;20053;-69
2023/06/27 09:27:31;;;;;;;7.78;1.10;;;;;;;-146.27;53.05;80986.31;5038247;28;20515;-70
2023/06/27 09:30:03;;;;;;;4.00;0.85;;;;;;;-146.27;51.97;80966.22;5045962;28;20480;-67
2023/06/27 09:32:29;;;;;;;4.40;1.07;;;;;;;-146.27;51.50;80986.31;5039824;28;20048;-68
2023/06/27 09:34:55;;;;;;;3.35;0.73;;;;;;;-146.27;52.42;80982.28;5041153;28;20029;-68
2023/06/27 09:37:20;;;;;;;4.78;0.95;;;;;;;-146.27;51.64;80974.25;5045516;28;20104;-68
2023/06/27 09:39:46;;;;;;;3.08;1.02;;;;;;;-146.27;50.16;80938.09;5044117;28;20052;-70
2023/06/27 09:42:12;;;;;;;6.03;1.10;;;;;;;-146.27;49.81;80910.00;5041170;28;20107;-69
2023/06/27 09:44:37;;;;;;;9.18;1.25;;;;;;;-146.27;49.39;80889.91;5044512;28;20103;-70
2023/06/27 09:47:09;;;;;;;4.60;1.05;;;;;;;-146.27;46.89;80930.06;5031194;28;20027;-70
2023/06/27 09:49:35;;;;;;;3.45;0.85;;;;;;;-146.27;47.96;80930.06;5048573;28;20068;-70
2023/06/27 09:52:04;;;;;;;5.15;1.17;;;;;;;-146.27;48.48;80817.63;5048972;28;20060;-68
2023/06/27 09:54:29;;;;;;;2.97;1.00;;;;;;;-146.27;47.51;80801.56;5048670;28;20021;-69
2023/06/27 09:56:56;;;;;;;4.28;0.93;;;;;;;-146.27;46.25;80777.47;5048007;28;20075;-68
2023/06/27 09:59:23;;;;;;;3.67;1.00;;;;;;;-146.27;46.06;80835.69;5047482;28;20045;-68
2023/06/27 10:01:50;;;;;;;3.10;1.08;;;;;;;-146.27;46.62;80791.53;5047501;28;20079;-69
2023/06/27 10:04:16;;;;;;;7.70;1.00;;;;;;;-146.27;46.37;80745.34;5047016;28;20530;-70
2023/06/27 10:06:42;;;;;;;6.30;0.88;;;;;;;-146.27;45.05;80767.44;5049423;28;20025;-69
2023/06/27 10:09:08;;;;;;;4.28;1.40;;;;;;;-146.27;45.06;80689.13;5047688;28;20122;-68
2023/06/27 10:11:35;;;;;;;4.75;1.15;;;;;;;-146.27;46.31;80757.38;5049314;28;20032;-68
2023/06/27 10:14:00;;;;;;;3.45;1.00;;;;;;;-146.27;45.31;80791.53;5048142;28;20071;-67
2023/06/27 10:16:26;;;;;;;5.75;1.05;;;;;;;-146.27;44.13;80707.19;5047474;28;20032;-68
2023/06/27 10:18:54;;;;;;;8.05;1.20;;;;;;;-146.27;43.86;80663.00;5031166;28;20497;-68
2023/06/27 10:21:20;;;;;;;2.67;0.80;;;;;;;-146.27;43.04;80620.84;5048123;28;20115;-68
2023/06/27 10:23:49;;;;;;;4.22;1.15;;;;;;;-146.27;42.89;80705.19;5048379;28;20447;-68
2023/06/27 10:26:18;;;;;;;6.97;1.15;;;;;;;-146.27;43.36;80697.16;5047612;28;20489;-68
2023/06/27 10:28:50;;;;;;;4.13;1.00;;;;;;;-146.27;43.74;80749.34;5036876;28;20083;-67
2023/06/27 10:31:36;;;;;;;4.78;1.00;;;;;;;-146.27;43.74;80669.03;5048219;28;20033;-70
2023/06/27 10:34:02;;;;;;;4.82;0.95;;;;;;;-146.27;43.85;80739.31;5047874;28;20401;-69
2023/06/27 10:36:51;;;;;;;5.43;1.10;;;;;;;-146.27;43.17;80632.91;5047411;28;20026;-69
2023/06/27 10:39:31;;;;;;;4.30;0.80;;;;;;;-146.27;43.69;80622.84;5051931;28;20424;-68
2023/06/27 10:42:03;;;;;;;6.65;0.90;;;;;;;-146.27;43.17;80540.53;5052751;28;20067;-68
2023/06/27 10:44:29;;;;;;;4.10;1.40;;;;;;;-146.27;41.13;80624.88;5049635;28;20556;-68
2023/06/27 10:47:38;;;;;;;5.03;1.10;;;;;;;-146.27;41.76;80652.97;5051445;28;20235;-69
2023/06/27 10:50:07;;;;;;;4.10;1.23;;;;;;;-146.27;42.61;80657.00;5051944;28;20033;-69
2023/06/27 10:52:33;;;;;;;3.97;1.35;;;;;;;-146.27;42.81;80677.06;5049214;28;20029;-69
2023/06/27 10:55:14;;;;;;;3.25;1.00;;;;;;;-146.27;41.65;80652.97;5046912;28;20438;-69
2023/06/27 10:57:43;;;;;;;4.75;1.48;;;;;;;-146.27;42.48;80606.78;5050527;28;20043;-70
2023/06/27 11:00:32;;;;;;;5.10;1.45;;;;;;;-146.27;42.51;80612.81;5049616;28;20144;-69
2023/06/27 11:02:58;;;;;;;4.93;1.15;;;;;;;-146.27;41.86;80612.81;5025748;28;20469;-68
2023/06/27 11:05:47;;;;;;;5.07;0.80;;;;;;;-146.27;40.83;80558.59;5044896;28;20060;-70
2023/06/27 11:08:14;;;;;;;2.70;0.88;;;;;;;-146.27;40.50;80580.69;5051292;28;20211;-71
2023/06/27 11:11:08;;;;;;;6.88;1.15;;;;;;;-146.27;40.53;80500.38;5047728;28;20041;-71
2023/06/27 11:13:43;;;;;;;2.80;1.00;;;;;;;-146.27;40.46;80506.41;5032072;28;20033;-70